Time;durP1;ratioP1;P1;durP2;ratioP2;P2;SDS_P1;SDS_P2;PMS_P1;PMS_P2;Temp;Humidity;BMP_temperature;BMP_pressure;BME280_temperature;BME280_humidity;BME280_pressure;Samples;Min_cycle;Max_cycle;Signal;HPM_P1;HPM_P2
2024/01/12 00:00:21;;;;;;;36.90;20.50;;;;;;;;;;778050;179;919087;-65
2024/01/12 00:02:47;;;;;;;41.80;22.47;;;;;;;;;;774372;179;918046;-65
2024/01/12 00:05:13;;;;;;;37.70;18.70;;;;;;;;;;772539;179;924924;-67
2024/01/12 00:07:39;;;;;;;36.33;18.63;;;;;;;;;;764568;180;916054;-66
2024/01/12 00:10:05;;;;;;;33.57;17.27;;;;;;;;;;770484;179;916879;-65
2024/01/12 00:12:31;;;;;;;43.23;19.33;;;;;;;;;;773298;179;919945;-65
2024/01/12 00:14:57;;;;;;;36.50;18.27;;;;;;;;;;771713;180;1006523;-66
2024/01/12 00:17:22;;;;;;;31.47;16.47;;;;;;;;;;777228;180;919019;-64
2024/01/12 00:19:48;;;;;;;29.50;18.10;;;;;;;;;;776572;180;935984;-66
2024/01/12 00:22:14;;;;;;;29.57;18.23;;;;;;;;;;768097;180;918160;-65
2024/01/12 00:24:40;;;;;;;50.33;27.37;;;;;;;;;;779538;180;918865;-66
2024/01/12 00:27:06;;;;;;;34.67;18.90;;;;;;;;;;772073;180;928242;-66
2024/01/12 00:29:32;;;;;;;40.73;18.70;;;;;;;;;;772944;180;1018054;-65
2024/01/12 00:31:57;;;;;;;42.77;18.73;;;;;;;;;;780720;179;916361;-65
2024/01/12 00:34:23;;;;;;;28.57;18.40;;;;;;;;;;773415;179;919108;-66
2024/01/12 00:36:53;;;;;;;33.35;20.73;;;;;;;;;;770227;180;918567;-66
2024/01/12 00:39:17;;;;;;;34.63;19.23;;;;;;;;;;762985;181;919612;-65
2024/01/12 00:41:42;;;;;;;38.40;20.57;;;;;;;;;;772976;181;919105;-65
2024/01/12 00:44:08;;;;;;;30.47;18.27;;;;;;;;;;774199;180;920231;-66
2024/01/12 00:46:33;;;;;;;35.23;20.30;;;;;;;;;;772051;179;934490;-66
2024/01/12 00:48:59;;;;;;;33.33;21.57;;;;;;;;;;782983;180;914995;-65
2024/01/12 00:51:25;;;;;;;34.17;18.70;;;;;;;;;;775426;180;946181;-66
2024/01/12 00:53:51;;;;;;;32.33;18.53;;;;;;;;;;774701;179;919153;-66
2024/01/12 00:56:17;;;;;;;33.80;18.47;;;;;;;;;;779015;179;916170;-65
2024/01/12 00:58:43;;;;;;;33.60;17.90;;;;;;;;;;774546;179;918896;-66
2024/01/12 01:01:08;;;;;;;36.07;18.47;;;;;;;;;;765031;179;919194;-66
2024/01/12 01:03:34;;;;;;;33.03;16.70;;;;;;;;;;762434;181;919252;-66
2024/01/12 01:06:00;;;;;;;28.73;16.40;;;;;;;;;;775774;178;918741;-66
2024/01/12 01:08:26;;;;;;;33.73;17.60;;;;;;;;;;770278;179;919547;-65
2024/01/12 01:10:52;;;;;;;32.23;16.70;;;;;;;;;;780212;180;918894;-65
2024/01/12 01:13:18;;;;;;;29.53;16.37;;;;;;;;;;778760;179;920120;-65
2024/01/12 01:15:44;;;;;;;27.93;16.47;;;;;;;;;;766482;177;918631;-65
2024/01/12 01:18:10;;;;;;;35.77;18.80;;;;;;;;;;771214;179;1022978;-64
2024/01/12 01:20:35;;;;;;;29.97;17.53;;;;;;;;;;780416;180;918917;-66
2024/01/12 01:23:02;;;;;;;34.90;15.37;;;;;;;;;;773443;179;916369;-66
2024/01/12 01:25:27;;;;;;;34.60;19.52;;;;;;;;;;773808;178;1015956;-66
2024/01/12 01:27:54;;;;;;;33.57;17.60;;;;;;;;;;774599;180;919634;-65
2024/01/12 01:30:19;;;;;;;35.60;19.02;;;;;;;;;;773321;179;919089;-66
2024/01/12 01:32:44;;;;;;;39.77;22.40;;;;;;;;;;776483;180;919761;-65
2024/01/12 01:35:10;;;;;;;41.35;23.48;;;;;;;;;;768932;180;928467;-66
2024/01/12 01:37:36;;;;;;;44.23;24.33;;;;;;;;;;775992;180;918169;-66
2024/01/12 01:40:05;;;;;;;41.85;22.70;;;;;;;;;;777858;179;918610;-66
2024/01/12 01:42:28;;;;;;;44.67;23.07;;;;;;;;;;771690;180;1021271;-66
2024/01/12 01:44:54;;;;;;;43.27;24.10;;;;;;;;;;777869;180;919416;-65
2024/01/12 01:47:20;;;;;;;54.20;24.60;;;;;;;;;;775047;180;919203;-66
2024/01/12 01:49:46;;;;;;;52.73;25.07;;;;;;;;;;768328;180;1021282;-64
2024/01/12 01:52:11;;;;;;;52.80;28.43;;;;;;;;;;779865;180;920430;-65
2024/01/12 01:54:37;;;;;;;37.60;23.77;;;;;;;;;;769802;180;919329;-65
2024/01/12 01:57:03;;;;;;;48.08;24.63;;;;;;;;;;759406;182;948029;-65
2024/01/12 01:59:29;;;;;;;42.80;23.73;;;;;;;;;;774242;180;919055;-66
2024/01/12 02:01:55;;;;;;;45.73;25.23;;;;;;;;;;772262;179;918670;-65
2024/01/12 02:04:21;;;;;;;48.37;24.97;;;;;;;;;;773525;180;920005;-65
2024/01/12 02:06:46;;;;;;;50.67;26.23;;;;;;;;;;777106;179;916993;-65
2024/01/12 02:09:12;;;;;;;48.07;24.50;;;;;;;;;;781299;180;922744;-66
2024/01/12 02:11:38;;;;;;;52.50;28.23;;;;;;;;;;772481;180;921037;-66
2024/01/12 02:14:06;;;;;;;49.20;27.77;;;;;;;;;;774668;180;921811;-65
2024/01/12 02:16:30;;;;;;;46.50;24.80;;;;;;;;;;779088;180;917872;-66
2024/01/12 02:18:56;;;;;;;50.37;26.50;;;;;;;;;;779984;178;924937;-65
2024/01/12 02:21:22;;;;;;;51.87;26.20;;;;;;;;;;767705;180;921530;-66
2024/01/12 02:23:47;;;;;;;50.90;27.20;;;;;;;;;;782566;179;919074;-65
2024/01/12 02:26:13;;;;;;;48.17;27.40;;;;;;;;;;769086;179;918955;-65
2024/01/12 02:28:39;;;;;;;54.67;27.23;;;;;;;;;;776200;179;918033;-65
2024/01/12 02:31:05;;;;;;;54.60;27.13;;;;;;;;;;772592;180;916453;-65
2024/01/12 02:33:31;;;;;;;47.60;27.60;;;;;;;;;;775439;180;918545;-65
2024/01/12 02:35:57;;;;;;;53.57;30.17;;;;;;;;;;773758;180;919224;-64
2024/01/12 02:38:22;;;;;;;50.40;29.80;;;;;;;;;;771861;180;919160;-66
2024/01/12 02:40:48;;;;;;;54.40;30.80;;;;;;;;;;780904;180;919424;-66
2024/01/12 02:43:14;;;;;;;58.23;30.47;;;;;;;;;;769562;181;919048;-65
2024/01/12 02:45:40;;;;;;;57.67;29.60;;;;;;;;;;772240;180;919173;-65
2024/01/12 02:48:06;;;;;;;59.57;31.43;;;;;;;;;;778215;179;919079;-66
2024/01/12 02:50:32;;;;;;;56.00;30.37;;;;;;;;;;775522;180;919410;-65
2024/01/12 02:52:58;;;;;;;55.07;29.27;;;;;;;;;;777567;180;919525;-66
2024/01/12 02:55:24;;;;;;;58.43;32.33;;;;;;;;;;775614;179;918516;-66
2024/01/12 02:57:49;;;;;;;57.20;32.07;;;;;;;;;;768173;180;919056;-66
2024/01/12 03:00:15;;;;;;;58.13;31.27;;;;;;;;;;774929;179;919254;-65
2024/01/12 03:02:41;;;;;;;50.93;32.60;;;;;;;;;;768705;180;918384;-65
2024/01/12 03:05:07;;;;;;;54.87;29.60;;;;;;;;;;770239;180;919553;-65
2024/01/12 03:07:33;;;;;;;58.37;31.83;;;;;;;;;;767102;180;919062;-66
2024/01/12 03:09:59;;;;;;;57.30;33.50;;;;;;;;;;775866;179;919218;-65
2024/01/12 03:12:25;;;;;;;53.92;30.35;;;;;;;;;;778259;180;919351;-65
2024/01/12 03:14:51;;;;;;;55.47;31.60;;;;;;;;;;774080;180;919287;-65
2024/01/12 03:17:16;;;;;;;56.35;32.75;;;;;;;;;;777084;179;917830;-66
2024/01/12 03:19:42;;;;;;;57.27;31.37;;;;;;;;;;780891;178;915854;-65
2024/01/12 03:22:09;;;;;;;61.30;30.27;;;;;;;;;;773942;180;919268;-65
2024/01/12 03:24:34;;;;;;;65.27;32.33;;;;;;;;;;776263;180;919263;-65
2024/01/12 03:27:00;;;;;;;57.53;32.67;;;;;;;;;;778862;179;918585;-65
2024/01/12 03:29:26;;;;;;;62.40;33.90;;;;;;;;;;769317;180;940347;-65
2024/01/12 03:31:52;;;;;;;54.17;33.08;;;;;;;;;;776038;179;919213;-66
2024/01/12 03:34:17;;;;;;;60.83;31.63;;;;;;;;;;778407;179;918699;-65
2024/01/12 03:36:43;;;;;;;61.73;32.80;;;;;;;;;;774578;180;918876;-65
2024/01/12 03:39:10;;;;;;;61.73;32.20;;;;;;;;;;774102;179;919538;-65
2024/01/12 03:41:35;;;;;;;68.80;36.70;;;;;;;;;;771936;179;918944;-65
2024/01/12 03:44:01;;;;;;;61.10;31.73;;;;;;;;;;782305;179;918658;-65
2024/01/12 03:46:27;;;;;;;62.03;34.87;;;;;;;;;;761534;181;919485;-65
2024/01/12 03:48:52;;;;;;;52.38;32.00;;;;;;;;;;776706;179;920246;-65
2024/01/12 03:51:18;;;;;;;60.80;34.60;;;;;;;;;;775437;180;919641;-65
2024/01/12 03:53:44;;;;;;;62.23;35.10;;;;;;;;;;775775;179;921666;-65
2024/01/12 03:56:10;;;;;;;61.00;33.67;;;;;;;;;;773222;179;919432;-65
2024/01/12 03:58:36;;;;;;;69.45;34.90;;;;;;;;;;773439;180;973640;-65
2024/01/12 04:01:02;;;;;;;61.37;33.27;;;;;;;;;;776005;179;922208;-65
2024/01/12 04:03:27;;;;;;;57.38;31.85;;;;;;;;;;774617;179;919282;-65
2024/01/12 04:05:53;;;;;;;51.80;31.10;;;;;;;;;;769736;180;918507;-66
2024/01/12 04:08:19;;;;;;;68.53;35.30;;;;;;;;;;776909;180;919123;-65
2024/01/12 04:10:45;;;;;;;65.90;33.37;;;;;;;;;;777258;179;924301;-66
2024/01/12 04:13:11;;;;;;;57.83;33.77;;;;;;;;;;775596;180;918606;-66
2024/01/12 04:15:37;;;;;;;67.37;32.63;;;;;;;;;;780234;180;917734;-66
2024/01/12 04:18:03;;;;;;;60.37;34.53;;;;;;;;;;771685;180;947654;-66
2024/01/12 04:20:29;;;;;;;58.00;33.43;;;;;;;;;;767579;180;919807;-66
2024/01/12 04:22:54;;;;;;;60.63;32.73;;;;;;;;;;777857;180;921452;-65
2024/01/12 04:25:20;;;;;;;70.03;34.83;;;;;;;;;;772576;179;1021485;-66
2024/01/12 04:27:46;;;;;;;58.70;32.20;;;;;;;;;;773887;179;918945;-66
2024/01/12 04:30:12;;;;;;;64.80;34.03;;;;;;;;;;772575;179;1016135;-66
2024/01/12 04:32:38;;;;;;;53.13;28.67;;;;;;;;;;775975;180;915841;-66
2024/01/12 04:35:04;;;;;;;50.87;27.00;;;;;;;;;;772442;180;922034;-67
2024/01/12 04:37:30;;;;;;;56.70;26.90;;;;;;;;;;774024;180;921314;-66
2024/01/12 04:39:56;;;;;;;40.10;23.63;;;;;;;;;;773872;180;917054;-66
2024/01/12 04:42:22;;;;;;;34.47;19.30;;;;;;;;;;778698;178;915393;-66
2024/01/12 04:44:47;;;;;;;28.50;12.20;;;;;;;;;;772895;178;916441;-66
2024/01/12 04:47:13;;;;;;;26.17;14.23;;;;;;;;;;768858;180;915445;-66
2024/01/12 04:49:39;;;;;;;21.33;9.63;;;;;;;;;;772208;180;912172;-66
2024/01/12 04:52:05;;;;;;;19.50;9.90;;;;;;;;;;773782;180;916095;-66
2024/01/12 04:54:31;;;;;;;13.23;6.50;;;;;;;;;;772652;180;919756;-66
2024/01/12 04:56:57;;;;;;;15.87;10.53;;;;;;;;;;777542;179;918754;-66
2024/01/12 04:59:23;;;;;;;19.27;9.50;;;;;;;;;;774237;180;919215;-66
2024/01/12 05:01:49;;;;;;;19.43;9.13;;;;;;;;;;772151;180;919003;-66
2024/01/12 05:04:15;;;;;;;14.10;6.10;;;;;;;;;;778869;179;913962;-65
2024/01/12 05:06:41;;;;;;;23.83;12.30;;;;;;;;;;771576;177;1098700;-66
2024/01/12 05:09:06;;;;;;;17.40;8.83;;;;;;;;;;759123;181;921935;-66
2024/01/12 05:11:32;;;;;;;17.27;9.10;;;;;;;;;;769689;180;939336;-66
2024/01/12 05:13:58;;;;;;;20.13;10.73;;;;;;;;;;773061;179;931955;-67
2024/01/12 05:16:24;;;;;;;21.53;10.30;;;;;;;;;;769532;179;1021116;-66
2024/01/12 05:18:50;;;;;;;28.47;11.33;;;;;;;;;;772694;180;918899;-66
2024/01/12 05:21:16;;;;;;;72.17;34.33;;;;;;;;;;764917;180;892296;-66
2024/01/12 05:23:44;;;;;;;53.43;22.10;;;;;;;;;;770974;180;950268;-66
2024/01/12 05:26:08;;;;;;;43.73;20.80;;;;;;;;;;774922;179;905241;-66
2024/01/12 05:28:34;;;;;;;32.67;18.10;;;;;;;;;;778794;180;1002965;-66
2024/01/12 05:31:00;;;;;;;30.97;15.57;;;;;;;;;;774519;177;629194;-67
2024/01/12 05:33:26;;;;;;;29.73;12.10;;;;;;;;;;764347;180;627244;-66
2024/01/12 05:35:52;;;;;;;29.05;13.80;;;;;;;;;;780168;180;617734;-66
2024/01/12 05:38:18;;;;;;;23.57;13.70;;;;;;;;;;770125;178;629335;-66
2024/01/12 05:40:43;;;;;;;20.93;12.33;;;;;;;;;;774144;179;628285;-67
2024/01/12 05:43:09;;;;;;;26.50;13.23;;;;;;;;;;780617;179;802645;-67
2024/01/12 05:45:35;;;;;;;39.73;19.90;;;;;;;;;;775289;178;640656;-67
2024/01/12 05:48:01;;;;;;;59.37;32.70;;;;;;;;;;768900;180;627692;-68
2024/01/12 05:50:27;;;;;;;62.40;36.40;;;;;;;;;;769534;181;618835;-67
2024/01/12 05:52:53;;;;;;;30.33;17.60;;;;;;;;;;764758;180;658949;-67
2024/01/12 05:55:19;;;;;;;34.70;17.00;;;;;;;;;;771081;179;634785;-67
2024/01/12 05:57:45;;;;;;;50.27;28.47;;;;;;;;;;766124;180;913711;-66
2024/01/12 06:00:11;;;;;;;43.70;25.27;;;;;;;;;;777394;179;918856;-67
2024/01/12 06:02:37;;;;;;;24.43;13.47;;;;;;;;;;769771;180;934822;-66
2024/01/12 06:05:03;;;;;;;26.53;15.13;;;;;;;;;;774374;179;1021520;-66
2024/01/12 06:07:29;;;;;;;28.47;15.20;;;;;;;;;;791000;180;26470;-66
2024/01/12 06:09:55;;;;;;;27.80;14.23;;;;;;;;;;781908;180;918883;-66
2024/01/12 06:12:21;;;;;;;28.77;15.40;;;;;;;;;;775474;180;917767;-67
2024/01/12 06:14:47;;;;;;;29.97;16.17;;;;;;;;;;775236;179;921529;-67
2024/01/12 06:17:13;;;;;;;31.43;15.40;;;;;;;;;;773069;180;919329;-67
2024/01/12 06:19:39;;;;;;;28.67;15.73;;;;;;;;;;776267;180;919010;-66
2024/01/12 06:22:05;;;;;;;43.77;25.40;;;;;;;;;;776406;179;919111;-67
2024/01/12 06:24:31;;;;;;;47.37;26.80;;;;;;;;;;780371;180;630498;-67
2024/01/12 06:26:56;;;;;;;39.27;21.30;;;;;;;;;;773526;180;623848;-66
2024/01/12 06:29:22;;;;;;;44.13;23.43;;;;;;;;;;779787;180;643377;-66
2024/01/12 06:31:48;;;;;;;64.77;32.50;;;;;;;;;;780065;180;628987;-67
2024/01/12 06:34:14;;;;;;;39.50;23.20;;;;;;;;;;776514;180;651669;-66
2024/01/12 06:36:43;;;;;;;58.55;32.90;;;;;;;;;;767235;180;1034721;-66
2024/01/12 06:39:09;;;;;;;169.97;87.37;;;;;;;;;;777527;180;921023;-66
2024/01/12 06:41:34;;;;;;;49.93;28.50;;;;;;;;;;773451;180;920311;-66
2024/01/12 06:44:00;;;;;;;55.73;30.90;;;;;;;;;;773331;179;913275;-67
2024/01/12 06:46:26;;;;;;;40.00;20.57;;;;;;;;;;774991;179;896506;-66
2024/01/12 06:48:52;;;;;;;38.40;22.70;;;;;;;;;;781300;180;910736;-67
2024/01/12 06:51:22;;;;;;;36.53;19.60;;;;;;;;;;771597;180;917046;-67
2024/01/12 06:53:48;;;;;;;32.33;19.53;;;;;;;;;;771626;180;918607;-66
2024/01/12 06:56:20;;;;;;;37.53;20.73;;;;;;;;;;765133;182;909617;-66
2024/01/12 06:58:46;;;;;;;37.87;18.87;;;;;;;;;;777105;180;1011561;-67
2024/01/12 07:01:12;;;;;;;36.57;21.83;;;;;;;;;;772922;179;919776;-67
2024/01/12 07:03:38;;;;;;;36.77;19.70;;;;;;;;;;774260;178;934893;-67
2024/01/12 07:06:04;;;;;;;32.08;17.98;;;;;;;;;;782452;179;922325;-67
2024/01/12 07:08:30;;;;;;;40.13;20.10;;;;;;;;;;773413;179;920782;-67
2024/01/12 07:10:56;;;;;;;39.57;22.30;;;;;;;;;;770352;179;919586;-67
2024/01/12 07:13:22;;;;;;;34.80;18.33;;;;;;;;;;782672;179;919012;-67
2024/01/12 07:15:48;;;;;;;29.07;14.43;;;;;;;;;;775702;179;919075;-67
2024/01/12 07:18:14;;;;;;;24.37;14.67;;;;;;;;;;777002;179;918885;-67
2024/01/12 07:20:39;;;;;;;25.43;15.00;;;;;;;;;;776860;179;920912;-68
2024/01/12 07:23:05;;;;;;;33.03;14.10;;;;;;;;;;774815;179;919695;-67
2024/01/12 07:25:33;;;;;;;28.95;14.87;;;;;;;;;;770514;179;919514;-67
2024/01/12 07:27:57;;;;;;;26.17;14.90;;;;;;;;;;776016;179;919744;-67
2024/01/12 07:30:23;;;;;;;30.60;16.97;;;;;;;;;;778401;180;921119;-67
2024/01/12 07:32:49;;;;;;;29.40;15.40;;;;;;;;;;772943;180;917969;-67
2024/01/12 07:35:14;;;;;;;27.87;16.25;;;;;;;;;;764940;179;2145795;-67
2024/01/12 07:37:41;;;;;;;28.07;16.20;;;;;;;;;;776968;179;919334;-67
2024/01/12 07:40:07;;;;;;;26.00;17.77;;;;;;;;;;773690;180;1020956;-67
2024/01/12 07:42:33;;;;;;;29.23;15.60;;;;;;;;;;769359;177;1020950;-67
2024/01/12 07:44:58;;;;;;;27.23;17.40;;;;;;;;;;765108;180;919540;-67
2024/01/12 07:47:24;;;;;;;34.13;18.17;;;;;;;;;;770484;179;917918;-67
2024/01/12 07:49:50;;;;;;;339.80;190.17;;;;;;;;;;767613;180;919395;-66
2024/01/12 07:52:16;;;;;;;230.73;102.53;;;;;;;;;;770669;180;944255;-67
2024/01/12 07:54:42;;;;;;;149.23;65.27;;;;;;;;;;778148;179;917114;-67
2024/01/12 07:57:08;;;;;;;79.53;39.13;;;;;;;;;;771168;180;919388;-66
2024/01/12 07:59:33;;;;;;;57.65;29.70;;;;;;;;;;770426;180;914021;-67
2024/01/12 08:02:01;;;;;;;130.10;62.70;;;;;;;;;;777234;179;939366;-67
2024/01/12 08:04:25;;;;;;;25.97;16.50;;;;;;;;;;770616;180;915883;-67
2024/01/12 08:06:51;;;;;;;38.63;23.57;;;;;;;;;;772586;180;919757;-67
2024/01/12 08:09:17;;;;;;;27.65;15.48;;;;;;;;;;778660;180;916270;-67
2024/01/12 08:11:43;;;;;;;34.13;16.30;;;;;;;;;;778274;180;636762;-67
2024/01/12 08:14:09;;;;;;;18.83;10.30;;;;;;;;;;776987;180;622629;-67
2024/01/12 08:16:34;;;;;;;14.33;8.47;;;;;;;;;;782323;179;625240;-66
2024/01/12 08:19:00;;;;;;;16.37;8.60;;;;;;;;;;778574;179;629995;-67
2024/01/12 08:21:26;;;;;;;20.47;8.70;;;;;;;;;;776677;179;620420;-68
2024/01/12 08:23:52;;;;;;;19.20;9.27;;;;;;;;;;775296;179;626188;-68
2024/01/12 08:26:19;;;;;;;15.50;8.53;;;;;;;;;;784294;180;681664;-67
2024/01/12 08:28:44;;;;;;;15.00;7.80;;;;;;;;;;777729;179;619290;-67
2024/01/12 08:31:09;;;;;;;14.43;8.27;;;;;;;;;;775731;179;622758;-68
2024/01/12 08:33:37;;;;;;;20.23;9.43;;;;;;;;;;777614;180;618782;-67
2024/01/12 08:36:01;;;;;;;17.23;9.10;;;;;;;;;;779782;180;622846;-68
2024/01/12 08:38:27;;;;;;;11.97;8.33;;;;;;;;;;779198;180;863309;-67
2024/01/12 08:40:53;;;;;;;14.60;7.80;;;;;;;;;;780097;179;919106;-68
2024/01/12 08:43:19;;;;;;;17.83;8.27;;;;;;;;;;772587;179;919428;-67
2024/01/12 08:45:44;;;;;;;13.57;8.50;;;;;;;;;;765493;179;918335;-67
2024/01/12 08:48:11;;;;;;;21.62;14.40;;;;;;;;;;764602;180;1020982;-68
2024/01/12 08:50:37;;;;;;;14.63;9.07;;;;;;;;;;776255;179;921702;-67
2024/01/12 08:53:02;;;;;;;16.43;8.23;;;;;;;;;;773768;177;918935;-68
2024/01/12 08:55:28;;;;;;;17.00;9.30;;;;;;;;;;766043;180;935962;-67
2024/01/12 08:57:54;;;;;;;16.27;9.17;;;;;;;;;;770904;180;922900;-68
2024/01/12 09:00:20;;;;;;;14.50;7.67;;;;;;;;;;775758;177;912241;-67
2024/01/12 09:02:46;;;;;;;13.07;7.33;;;;;;;;;;761187;183;913391;-68
2024/01/12 09:05:12;;;;;;;17.23;8.17;;;;;;;;;;773096;180;919299;-68
2024/01/12 09:07:38;;;;;;;14.40;8.17;;;;;;;;;;772616;179;918526;-68
2024/01/12 09:10:04;;;;;;;15.33;7.27;;;;;;;;;;772462;179;919847;-68
2024/01/12 09:12:29;;;;;;;16.50;7.70;;;;;;;;;;773519;180;918003;-67
2024/01/12 09:14:55;;;;;;;13.63;6.60;;;;;;;;;;774281;179;920784;-68
2024/01/12 09:17:21;;;;;;;12.57;6.33;;;;;;;;;;774285;180;918426;-68
2024/01/12 09:19:47;;;;;;;10.23;5.70;;;;;;;;;;773984;180;915296;-68
2024/01/12 09:22:13;;;;;;;10.97;5.30;;;;;;;;;;777954;180;916174;-69
2024/01/12 09:24:39;;;;;;;9.93;7.27;;;;;;;;;;768184;180;914906;-69
2024/01/12 09:27:04;;;;;;;10.40;7.83;;;;;;;;;;774239;178;931419;-68
2024/01/12 09:29:30;;;;;;;11.20;6.23;;;;;;;;;;779492;179;952576;-68
2024/01/12 09:31:56;;;;;;;11.03;6.17;;;;;;;;;;769732;179;918911;-68
2024/01/12 09:34:22;;;;;;;11.20;4.73;;;;;;;;;;771324;179;919777;-68
2024/01/12 09:36:48;;;;;;;8.27;4.27;;;;;;;;;;776408;179;918986;-68
2024/01/12 09:39:14;;;;;;;11.48;5.75;;;;;;;;;;774783;179;920574;-69
2024/01/12 09:41:43;;;;;;;11.20;5.90;;;;;;;;;;773492;179;919554;-68
2024/01/12 09:44:09;;;;;;;12.73;5.87;;;;;;;;;;771293;179;929735;-68
2024/01/12 09:46:35;;;;;;;12.50;5.53;;;;;;;;;;777062;177;918291;-68
2024/01/12 09:49:01;;;;;;;13.80;7.63;;;;;;;;;;771629;179;927103;-66
2024/01/12 09:51:27;;;;;;;11.50;5.20;;;;;;;;;;775834;179;919868;-68
2024/01/12 09:53:53;;;;;;;13.52;6.18;;;;;;;;;;781620;179;918873;-69
2024/01/12 09:56:18;;;;;;;15.03;7.20;;;;;;;;;;777403;179;920101;-69
2024/01/12 09:58:44;;;;;;;75.47;31.87;;;;;;;;;;775718;180;918646;-71
2024/01/12 10:01:10;;;;;;;155.80;51.07;;;;;;;;;;783300;179;918088;-72
2024/01/12 10:03:36;;;;;;;78.13;32.50;;;;;;;;;;774518;179;919033;-72
2024/01/12 10:06:03;;;;;;;24.70;14.43;;;;;;;;;;763932;181;919763;-72
2024/01/12 10:08:35;;;;;;;19.65;9.27;;;;;;;;;;773670;179;1025960;-71
2024/01/12 10:11:01;;;;;;;21.03;12.53;;;;;;;;;;764360;181;918567;-72
2024/01/12 10:13:27;;;;;;;19.40;11.00;;;;;;;;;;763438;181;950144;-71
2024/01/12 10:15:53;;;;;;;34.73;16.67;;;;;;;;;;770872;180;919273;-70
2024/01/12 10:18:19;;;;;;;47.90;21.77;;;;;;;;;;778849;180;918785;-71
2024/01/12 10:20:45;;;;;;;15.20;8.50;;;;;;;;;;773643;179;918297;-72
2024/01/12 10:23:11;;;;;;;6.37;3.65;;;;;;;;;;771636;180;920024;-71
2024/01/12 10:25:37;;;;;;;15.55;8.45;;;;;;;;;;765087;181;1020832;-71
2024/01/12 10:28:03;;;;;;;14.07;7.20;;;;;;;;;;773562;180;916009;-73
2024/01/12 10:30:29;;;;;;;16.13;6.90;;;;;;;;;;772361;177;924464;-73
2024/01/12 10:32:55;;;;;;;26.60;12.77;;;;;;;;;;774883;180;919370;-74
2024/01/12 10:35:21;;;;;;;16.87;10.90;;;;;;;;;;780522;180;917297;-73
2024/01/12 10:37:47;;;;;;;50.90;20.80;;;;;;;;;;773695;179;1122598;-72
2024/01/12 10:40:12;;;;;;;22.37;10.30;;;;;;;;;;777461;176;978949;-72
2024/01/12 10:42:38;;;;;;;16.53;8.90;;;;;;;;;;780523;179;809307;-73
2024/01/12 10:45:05;;;;;;;17.47;11.67;;;;;;;;;;782733;179;816282;-72
2024/01/12 10:47:32;;;;;;;22.83;12.23;;;;;;;;;;774231;179;932532;-71
2024/01/12 10:50:00;;;;;;;15.33;8.33;;;;;;;;;;782020;179;813355;-72
2024/01/12 10:52:40;;;;;;;12.03;7.50;;;;;;;;;;780858;179;919440;-73
2024/01/12 10:55:10;;;;;;;13.80;8.00;;;;;;;;;;784471;178;1123086;-73
2024/01/12 10:57:33;;;;;;;18.93;8.33;;;;;;;;;;773480;179;918011;-72
2024/01/12 10:59:59;;;;;;;18.90;9.50;;;;;;;;;;777641;179;915401;-73
2024/01/12 11:02:25;;;;;;;31.37;12.60;;;;;;;;;;780702;179;828134;-71
2024/01/12 11:04:51;;;;;;;42.43;21.90;;;;;;;;;;773252;179;1125660;-72
2024/01/12 11:07:17;;;;;;;48.97;25.00;;;;;;;;;;774262;179;906278;-72
2024/01/12 11:09:43;;;;;;;43.47;20.70;;;;;;;;;;780558;179;902780;-73
2024/01/12 11:12:09;;;;;;;26.90;11.70;;;;;;;;;;779116;180;635649;-73
2024/01/12 11:14:35;;;;;;;28.45;15.77;;;;;;;;;;776009;179;978453;-74
2024/01/12 11:17:01;;;;;;;35.63;19.33;;;;;;;;;;783160;179;617069;-72
2024/01/12 11:19:27;;;;;;;25.80;15.13;;;;;;;;;;776605;179;771034;-72
2024/01/12 11:21:58;;;;;;;21.30;11.03;;;;;;;;;;772753;177;812835;-73
2024/01/12 11:24:24;;;;;;;32.97;15.87;;;;;;;;;;772807;179;918396;-72
2024/01/12 11:26:50;;;;;;;31.77;13.90;;;;;;;;;;776329;180;658830;-72
2024/01/12 11:29:19;;;;;;;30.43;16.20;;;;;;;;;;775821;179;710826;-72
2024/01/12 11:31:48;;;;;;;22.47;11.40;;;;;;;;;;773288;178;919610;-72
2024/01/12 11:34:15;;;;;;;21.57;11.73;;;;;;;;;;758398;181;936455;-72
2024/01/12 11:36:40;;;;;;;27.63;17.27;;;;;;;;;;777731;180;918464;-72
2024/01/12 11:39:06;;;;;;;32.43;18.33;;;;;;;;;;773881;179;1022011;-72
2024/01/12 11:41:32;;;;;;;41.35;25.05;;;;;;;;;;769616;179;1127151;-71
2024/01/12 11:43:58;;;;;;;33.13;17.87;;;;;;;;;;774786;180;919441;-73
2024/01/12 11:46:24;;;;;;;67.27;33.40;;;;;;;;;;773380;180;1019071;-72
2024/01/12 11:48:49;;;;;;;22.30;13.10;;;;;;;;;;772302;179;1053010;-72
2024/01/12 11:51:19;;;;;;;37.10;22.43;;;;;;;;;;779943;178;1021776;-70
2024/01/12 11:53:48;;;;;;;18.83;10.57;;;;;;;;;;779353;179;918013;-71
2024/01/12 11:56:11;;;;;;;17.40;9.23;;;;;;;;;;770062;178;628533;-72
2024/01/12 11:58:37;;;;;;;15.90;9.37;;;;;;;;;;769201;179;917607;-71
2024/01/12 12:01:02;;;;;;;17.23;10.60;;;;;;;;;;779908;179;910490;-72
2024/01/12 12:03:28;;;;;;;17.30;8.97;;;;;;;;;;774007;179;942484;-71
2024/01/12 12:05:54;;;;;;;20.53;9.67;;;;;;;;;;772850;180;952414;-71
2024/01/12 12:08:20;;;;;;;22.73;16.90;;;;;;;;;;776968;180;921476;-72
2024/01/12 12:10:46;;;;;;;11.37;6.03;;;;;;;;;;771260;179;918680;-72
2024/01/12 12:13:12;;;;;;;17.50;11.03;;;;;;;;;;773782;180;920618;-71
2024/01/12 12:15:37;;;;;;;15.30;8.67;;;;;;;;;;776976;179;924753;-73
2024/01/12 12:18:04;;;;;;;17.90;8.60;;;;;;;;;;772770;179;926796;-71
2024/01/12 12:20:29;;;;;;;17.77;11.33;;;;;;;;;;772155;180;919005;-72
2024/01/12 12:22:56;;;;;;;13.03;9.37;;;;;;;;;;772829;179;919663;-71
2024/01/12 12:25:21;;;;;;;14.23;9.20;;;;;;;;;;779533;179;917642;-72
2024/01/12 12:27:47;;;;;;;18.87;9.07;;;;;;;;;;774042;180;919125;-71
2024/01/12 12:30:13;;;;;;;18.80;10.07;;;;;;;;;;775792;179;914747;-72
2024/01/12 12:32:39;;;;;;;15.20;8.37;;;;;;;;;;777299;179;1019151;-71
2024/01/12 12:35:14;;;;;;;14.70;7.13;;;;;;;;;;776353;179;712478;-71
2024/01/12 12:37:40;;;;;;;16.67;9.87;;;;;;;;;;776074;179;626759;-72
2024/01/12 12:40:06;;;;;;;12.20;7.60;;;;;;;;;;770463;180;655173;-72
2024/01/12 12:42:31;;;;;;;12.60;7.67;;;;;;;;;;771766;180;706517;-73
2024/01/12 12:44:57;;;;;;;16.70;8.97;;;;;;;;;;773524;177;919780;-71
2024/01/12 12:47:24;;;;;;;18.27;12.20;;;;;;;;;;767594;180;920045;-71
2024/01/12 12:49:49;;;;;;;14.93;8.00;;;;;;;;;;767342;179;717069;-73
2024/01/12 12:52:15;;;;;;;17.70;8.97;;;;;;;;;;779720;180;627651;-72
2024/01/12 12:54:42;;;;;;;30.23;14.77;;;;;;;;;;776563;179;618317;-73
2024/01/12 12:57:07;;;;;;;25.27;10.60;;;;;;;;;;780783;179;630164;-72
2024/01/12 12:59:35;;;;;;;17.00;8.90;;;;;;;;;;776790;179;633606;-72
2024/01/12 13:01:59;;;;;;;19.07;9.80;;;;;;;;;;777608;178;658818;-72
2024/01/12 13:04:25;;;;;;;20.20;9.40;;;;;;;;;;778317;178;623849;-71
2024/01/12 13:06:51;;;;;;;13.90;7.60;;;;;;;;;;781615;179;630232;-71
2024/01/12 13:09:17;;;;;;;14.40;7.37;;;;;;;;;;777491;179;630451;-71
2024/01/12 13:11:43;;;;;;;20.97;10.30;;;;;;;;;;777083;179;619224;-71
2024/01/12 13:14:08;;;;;;;20.07;10.83;;;;;;;;;;780839;179;915542;-72
2024/01/12 13:16:36;;;;;;;18.80;10.67;;;;;;;;;;772051;180;1324601;-72
2024/01/12 13:19:03;;;;;;;11.93;7.27;;;;;;;;;;775140;179;919408;-71
2024/01/12 13:21:28;;;;;;;22.75;11.00;;;;;;;;;;777697;179;929877;-72
2024/01/12 13:23:54;;;;;;;9.43;6.13;;;;;;;;;;772421;179;920236;-72
2024/01/12 13:26:22;;;;;;;20.50;10.70;;;;;;;;;;772963;179;914058;-71
2024/01/12 13:28:45;;;;;;;16.10;9.17;;;;;;;;;;772307;180;913016;-71
2024/01/12 13:31:11;;;;;;;11.57;6.30;;;;;;;;;;777904;179;911365;-71
2024/01/12 13:33:37;;;;;;;13.10;6.50;;;;;;;;;;772879;179;914649;-71
2024/01/12 13:36:03;;;;;;;17.17;7.43;;;;;;;;;;771464;180;939043;-71
2024/01/12 13:38:29;;;;;;;23.17;10.67;;;;;;;;;;780170;179;909900;-72
2024/01/12 13:40:56;;;;;;;12.20;7.50;;;;;;;;;;773135;178;910861;-72
2024/01/12 13:43:21;;;;;;;15.80;8.70;;;;;;;;;;762863;181;913637;-71
2024/01/12 13:45:46;;;;;;;20.13;8.60;;;;;;;;;;781221;180;916951;-71
2024/01/12 13:48:12;;;;;;;13.63;8.10;;;;;;;;;;770248;180;916215;-72
2024/01/12 13:50:38;;;;;;;13.67;6.53;;;;;;;;;;761667;180;912631;-72
2024/01/12 13:53:04;;;;;;;16.63;6.90;;;;;;;;;;773944;180;829056;-72
2024/01/12 13:55:30;;;;;;;18.30;7.87;;;;;;;;;;776288;180;919862;-75
2024/01/12 13:57:56;;;;;;;15.20;7.97;;;;;;;;;;773123;179;923057;-71